createdAt,value
2022-10-11T00:01:20.760Z,100883.41
2022-10-11T00:06:22.404Z,100880.03
2022-10-11T00:11:23.936Z,100879.97
2022-10-11T00:16:25.489Z,100886.50
2022-10-11T00:21:27.172Z,100871.50
2022-10-11T00:26:29.307Z,100862.00
2022-10-11T00:31:35.373Z,100869.44
2022-10-11T00:36:37.493Z,100879.03
2022-10-11T00:41:39.075Z,100870.31
2022-10-11T00:46:44.478Z,100888.53
2022-10-11T00:51:51.217Z,100883.00
2022-10-11T00:57:03.611Z,100886.75
2022-10-11T01:02:06.720Z,100885.81
2022-10-11T01:07:09.572Z,100890.63
2022-10-11T01:12:23.071Z,100901.41
2022-10-11T01:18:22.046Z,100897.47
2022-10-11T01:23:35.584Z,100899.13
2022-10-11T01:29:11.780Z,100891.34
2022-10-11T01:34:34.158Z,100883.78
2022-10-11T01:39:52.113Z,100885.13
2022-10-11T01:44:55.252Z,100887.66
2022-10-11T01:49:59.673Z,100893.41
2022-10-11T01:55:23.647Z,100888.72
2022-10-11T02:00:31.890Z,100888.97
2022-10-11T02:06:10.420Z,100887.66
2022-10-11T02:11:31.537Z,100897.00
2022-10-11T02:16:43.665Z,100898.19
2022-10-11T02:21:50.810Z,100896.53
2022-10-11T02:26:55.683Z,100905.03
2022-10-11T02:31:59.457Z,100911.00
2022-10-11T02:37:11.953Z,100912.56
2022-10-11T02:42:26.890Z,100910.09
2022-10-11T02:47:31.006Z,100908.84
2022-10-11T02:52:32.545Z,100913.78
2022-10-11T02:57:34.156Z,100915.94
2022-10-11T03:02:35.765Z,100904.19
2022-10-11T03:07:37.442Z,100907.91
2022-10-11T03:12:38.985Z,100905.50
2022-10-11T03:17:40.528Z,100919.44
2022-10-11T03:22:42.035Z,100916.63
2022-10-11T03:27:43.597Z,100914.31
2022-10-11T03:32:45.536Z,100914.41
2022-10-11T03:37:47.099Z,100926.72
2022-10-11T03:42:48.631Z,100914.75
2022-10-11T03:47:50.200Z,100917.72
2022-10-11T03:52:51.756Z,100929.09
2022-10-11T03:57:53.438Z,100927.19
2022-10-11T04:02:57.324Z,100935.06
2022-10-11T04:07:58.843Z,100936.59
2022-10-11T04:13:00.397Z,100938.22
2022-10-11T04:18:01.916Z,100952.13
2022-10-11T04:23:03.534Z,100959.63
2022-10-11T04:28:05.218Z,100961.97
2022-10-11T04:33:06.853Z,100967.03
2022-10-11T04:38:08.496Z,100974.59
2022-10-11T04:43:10.073Z,100975.44
2022-10-11T04:48:11.680Z,100977.81
2022-10-11T04:53:13.205Z,100984.28
2022-10-11T04:58:14.763Z,100995.03
2022-10-11T05:03:16.279Z,100995.25
2022-10-11T05:08:17.836Z,101014.59
2022-10-11T05:13:19.353Z,101004.81
2022-10-11T05:18:21.411Z,101013.25
2022-10-11T05:23:22.935Z,101020.19
2022-10-11T05:28:24.755Z,101031.19
2022-10-11T05:33:26.653Z,101037.38
2022-10-11T05:38:28.628Z,101043.09
2022-10-11T05:43:33.035Z,101050.94
2022-10-11T05:48:34.556Z,101052.69
2022-10-11T05:53:37.975Z,101063.06
2022-10-11T05:58:39.689Z,101067.34
2022-10-11T06:03:41.216Z,101073.88
2022-10-11T06:08:43.061Z,101086.19
2022-10-11T06:13:44.810Z,101092.50
2022-10-11T06:18:46.486Z,101095.50
2022-10-11T06:23:50.397Z,101096.78
2022-10-11T06:28:52.837Z,101100.81
2022-10-11T06:33:54.411Z,101114.16
2022-10-11T06:38:56.142Z,101114.00
2022-10-11T06:43:57.995Z,101124.13
2022-10-11T06:48:59.525Z,101132.78
2022-10-11T06:54:02.175Z,101138.94
2022-10-11T06:59:03.899Z,101152.47
2022-10-11T07:04:05.602Z,101148.44
2022-10-11T07:09:07.830Z,101161.75
2022-10-11T07:14:09.609Z,101166.16
2022-10-11T07:19:11.260Z,101189.59
2022-10-11T07:24:12.785Z,101201.25
2022-10-11T07:29:14.385Z,101207.59
2022-10-11T07:34:16.060Z,101204.41
2022-10-11T07:39:17.641Z,101213.50
2022-10-11T07:44:19.156Z,101222.09
2022-10-11T07:49:20.711Z,101227.63
2022-10-11T07:54:49.970Z,101232.66
2022-10-11T07:59:51.604Z,101236.06
2022-10-11T08:04:53.154Z,101236.94
2022-10-11T08:09:54.827Z,101239.94
2022-10-11T08:14:56.652Z,101257.84
2022-10-11T08:19:58.207Z,101253.84
2022-10-11T08:24:59.805Z,101255.34
2022-10-11T08:30:01.498Z,101260.22
2022-10-11T08:35:03.267Z,101271.91
2022-10-11T08:40:05.945Z,101271.44
2022-10-11T08:45:11.905Z,101269.00
2022-10-11T08:50:23.867Z,101267.88
2022-10-11T08:55:45.798Z,101263.38
2022-10-11T09:00:50.205Z,101273.41
2022-10-11T09:06:12.567Z,101258.44
2022-10-11T09:17:08.469Z,101255.06
2022-10-11T09:22:24.739Z,101235.84
2022-10-11T09:28:03.275Z,101248.06
2022-10-11T09:33:19.121Z,101240.28
2022-10-11T09:38:46.410Z,101265.31
2022-10-11T09:43:50.973Z,101252.47
2022-10-11T09:48:56.212Z,101259.81
2022-10-11T09:54:04.828Z,101267.13
2022-10-11T09:59:24.061Z,101268.06
2022-10-11T10:04:25.624Z,101278.84
2022-10-11T10:09:30.926Z,101269.88
2022-10-11T10:14:32.497Z,101273.03
2022-10-11T10:19:44.913Z,101262.41
2022-10-11T10:24:48.877Z,101262.69
2022-10-11T10:30:16.230Z,101241.22
2022-10-11T10:35:29.670Z,101254.53
2022-10-11T10:40:39.451Z,101243.19
2022-10-11T10:45:59.843Z,101233.72
2022-10-11T10:51:16.786Z,101228.28
2022-10-11T10:56:46.032Z,101222.13
2022-10-11T11:02:21.493Z,101212.44
2022-10-11T11:07:33.001Z,101215.00
2022-10-11T11:13:12.116Z,101225.97
2022-10-11T11:18:36.502Z,101217.56
2022-10-11T11:23:59.188Z,101222.38
2022-10-11T11:29:08.906Z,101230.06
2022-10-11T11:34:28.493Z,101216.78
2022-10-11T11:39:34.832Z,101218.94
2022-10-11T11:44:41.396Z,101209.19
2022-10-11T11:50:03.825Z,101201.63
2022-10-11T11:55:16.820Z,101197.66
2022-10-11T12:00:22.126Z,101190.19
2022-10-11T12:05:29.021Z,101203.75
2022-10-11T12:10:51.956Z,101190.06
2022-10-11T12:16:11.872Z,101197.00
2022-10-11T12:21:25.808Z,101197.66
2022-10-11T12:26:27.273Z,101183.19
2022-10-11T12:31:32.357Z,101184.66
2022-10-11T12:36:46.964Z,101176.59
2022-10-11T12:41:56.091Z,101172.28
2022-10-11T12:46:57.893Z,101162.31
2022-10-11T12:52:17.783Z,101172.03
2022-10-11T12:57:39.642Z,101159.94
2022-10-11T13:02:44.082Z,101148.75
2022-10-11T13:07:46.573Z,101137.47
2022-10-11T13:12:53.129Z,101125.41
2022-10-11T13:17:59.622Z,101119.69
2022-10-11T13:23:02.944Z,101127.38
2022-10-11T13:28:08.875Z,101133.72
2022-10-11T13:33:23.580Z,101120.59
2022-10-11T13:38:34.205Z,101137.19
2022-10-11T13:43:36.606Z,101124.72
2022-10-11T13:48:43.956Z,101115.53
2022-10-11T13:54:13.144Z,101123.06
2022-10-11T13:59:18.282Z,101130.97
2022-10-11T14:04:19.877Z,101123.75
2022-10-11T14:09:30.490Z,101111.94
2022-10-11T14:14:35.655Z,101122.47
2022-10-11T14:19:37.536Z,101106.44
2022-10-11T14:24:39.055Z,101098.25
2022-10-11T14:30:00.341Z,101102.59
2022-10-11T14:35:06.877Z,101103.09
2022-10-11T14:40:15.315Z,101085.25
2022-10-11T14:45:17.699Z,101093.25
2022-10-11T14:51:01.018Z,101090.31
2022-10-11T14:56:02.842Z,101094.19
2022-10-11T15:01:04.669Z,101086.66
2022-10-11T15:06:07.792Z,101082.81
2022-10-11T15:11:11.705Z,101088.22
2022-10-11T15:16:15.819Z,101076.81
2022-10-11T15:21:23.094Z,101070.25
2022-10-11T15:26:27.198Z,101075.69
2022-10-11T15:31:28.748Z,101064.53
2022-10-11T15:36:30.671Z,101059.91
2022-10-11T15:41:32.200Z,101066.41
2022-10-11T15:46:33.709Z,101057.53
2022-10-11T15:51:35.198Z,101056.00
2022-10-11T15:56:37.860Z,101045.66
2022-10-11T16:01:39.762Z,101047.22
2022-10-11T16:06:41.384Z,101043.19
2022-10-11T16:11:45.054Z,101035.53
2022-10-11T16:16:46.616Z,101033.28
2022-10-11T16:21:48.142Z,101025.75
2022-10-11T16:26:49.643Z,101035.34
2022-10-11T16:31:51.230Z,101030.41
2022-10-11T16:36:52.819Z,101037.94
2022-10-11T16:41:54.369Z,101049.78
2022-10-11T16:46:56.013Z,101053.66
2022-10-11T16:52:03.791Z,101050.00
2022-10-11T16:57:05.448Z,101054.91
2022-10-11T17:02:09.781Z,101057.41
2022-10-11T17:07:14.967Z,101071.16
2022-10-11T17:12:20.222Z,101069.47
2022-10-11T17:17:21.739Z,101072.31
2022-10-11T17:22:23.369Z,101084.63
2022-10-11T17:27:24.921Z,101086.47
2022-10-11T17:32:26.440Z,101086.06
2022-10-11T17:37:28.021Z,101086.59
2022-10-11T17:42:29.535Z,101067.38
2022-10-11T17:47:31.059Z,101067.66
2022-10-11T17:52:32.599Z,101060.41
2022-10-11T17:57:34.132Z,101048.69
2022-10-11T18:02:35.717Z,101045.78
2022-10-11T18:07:37.235Z,101052.66
2022-10-11T18:12:38.823Z,101053.19
2022-10-11T18:17:40.327Z,101049.03
2022-10-11T18:22:41.871Z,101050.56
2022-10-11T18:27:43.375Z,101044.09
2022-10-11T18:32:45.016Z,101033.59
2022-10-11T18:37:46.590Z,101037.84
2022-10-11T18:42:48.144Z,101030.25
2022-10-11T18:47:51.069Z,101038.69
2022-10-11T18:52:52.719Z,101041.41
2022-10-11T18:57:54.356Z,101037.22
2022-10-11T19:02:56.159Z,101049.63
2022-10-11T19:07:57.724Z,101048.81
2022-10-11T19:12:59.454Z,101056.59
2022-10-11T19:18:00.968Z,101051.09
2022-10-11T19:23:02.485Z,101060.41
2022-10-11T19:28:04.159Z,101055.13
2022-10-11T19:33:05.749Z,101049.88
2022-10-11T19:38:07.299Z,101052.16
2022-10-11T19:43:08.827Z,101054.50
2022-10-11T19:48:11.475Z,101053.44
2022-10-11T19:53:15.144Z,101062.06
2022-10-11T19:58:17.363Z,101058.91
2022-10-11T20:03:18.907Z,101066.25
2022-10-11T20:08:20.431Z,101066.47
2022-10-11T20:13:22.034Z,101065.66
2022-10-11T20:18:24.536Z,101069.44
2022-10-11T20:23:27.729Z,101069.44
2022-10-11T20:28:31.675Z,101068.38
2022-10-11T20:33:33.612Z,101070.06
2022-10-11T20:38:37.206Z,101078.53
2022-10-11T20:43:41.040Z,101071.34
2022-10-11T20:48:46.741Z,101072.78
2022-10-11T20:53:49.396Z,101072.78
2022-10-11T20:58:52.851Z,101062.03
2022-10-11T21:03:56.878Z,101063.31
2022-10-11T21:08:59.648Z,101068.81
2022-10-11T21:14:05.838Z,101061.22
2022-10-11T21:19:07.441Z,101065.22
2022-10-11T21:24:09.299Z,101059.13
2022-10-11T21:29:10.868Z,101059.97
2022-10-11T21:34:12.421Z,101057.44
2022-10-11T21:39:14.016Z,101061.63
2022-10-11T21:44:15.784Z,101057.66
2022-10-11T21:49:18.106Z,101054.91
2022-10-11T21:54:19.637Z,101056.41
2022-10-11T21:59:21.203Z,101059.94
2022-10-11T22:04:22.747Z,101049.22
2022-10-11T22:09:24.383Z,101053.22
2022-10-11T22:14:26.807Z,101047.97
2022-10-11T22:19:28.316Z,101047.31
2022-10-11T22:24:29.971Z,101048.16
2022-10-11T22:29:34.174Z,101041.81
2022-10-11T22:34:36.067Z,101031.06
2022-10-11T22:39:37.600Z,101030.22
2022-10-11T22:44:39.128Z,101022.41
2022-10-11T22:49:40.638Z,101013.13
2022-10-11T22:54:42.304Z,101019.41
2022-10-11T22:59:43.837Z,101020.25
2022-10-11T23:04:45.377Z,101022.75
2022-10-11T23:09:46.954Z,101020.19
2022-10-11T23:14:48.487Z,101016.38
2022-10-11T23:19:50.049Z,101027.13
2022-10-11T23:24:51.639Z,101023.38
2022-10-11T23:29:53.264Z,101019.88
2022-10-11T23:34:54.856Z,101027.66
2022-10-11T23:39:56.376Z,101019.25
2022-10-11T23:44:57.897Z,101012.75
2022-10-11T23:49:59.430Z,101022.41
2022-10-11T23:55:00.940Z,101012.28
